sensor_id;sensor_type;location;lat;lon;timestamp;pressure;altitude;pressure_sealevel;temperature;humidity
32197;BME280;18697;42.770;23.400;2023-08-31T00:00:43;95017.16;;;23.78;53.60
32197;BME280;18697;42.770;23.400;2023-08-31T00:03:09;95016.41;;;23.77;53.34
32197;BME280;18697;42.770;23.400;2023-08-31T00:05:38;95010.75;;;23.70;53.68
32197;BME280;18697;42.770;23.400;2023-08-31T00:08:05;95022.47;;;23.66;53.88
32197;BME280;18697;42.770;23.400;2023-08-31T00:10:31;95010.38;;;23.73;53.51
32197;BME280;18697;42.770;23.400;2023-08-31T00:12:57;95007.94;;;23.62;53.95
32197;BME280;18697;42.770;23.400;2023-08-31T00:15:22;95012.09;;;23.69;53.69
32197;BME280;18697;42.770;23.400;2023-08-31T00:17:49;95004.16;;;23.59;53.84
32197;BME280;18697;42.770;23.400;2023-08-31T00:20:14;95014.88;;;23.46;54.29
32197;BME280;18697;42.770;23.400;2023-08-31T00:22:40;95010.72;;;23.47;54.27
32197;BME280;18697;42.770;23.400;2023-08-31T00:25:06;95014.72;;;23.59;53.99
32197;BME280;18697;42.770;23.400;2023-08-31T00:27:34;95010.75;;;23.62;54.03
32197;BME280;18697;42.770;23.400;2023-08-31T00:29:59;95008.88;;;23.57;54.28
32197;BME280;18697;42.770;23.400;2023-08-31T00:32:24;95013.22;;;23.58;53.99
32197;BME280;18697;42.770;23.400;2023-08-31T00:34:50;95016.59;;;23.56;54.22
32197;BME280;18697;42.770;23.400;2023-08-31T00:37:16;95022.59;;;23.38;54.48
32197;BME280;18697;42.770;23.400;2023-08-31T00:39:41;95028.66;;;23.42;54.48
32197;BME280;18697;42.770;23.400;2023-08-31T00:42:07;95025.06;;;23.41;54.30
32197;BME280;18697;42.770;23.400;2023-08-31T00:44:33;95032.78;;;23.33;54.59
32197;BME280;18697;42.770;23.400;2023-08-31T00:46:58;95025.41;;;23.22;54.89
32197;BME280;18697;42.770;23.400;2023-08-31T00:49:24;95035.38;;;23.08;55.62
32197;BME280;18697;42.770;23.400;2023-08-31T00:51:49;95037.81;;;23.04;55.55
32197;BME280;18697;42.770;23.400;2023-08-31T00:54:19;95031.75;;;22.92;55.78
32197;BME280;18697;42.770;23.400;2023-08-31T00:56:46;95048.16;;;22.86;56.05
32197;BME280;18697;42.770;23.400;2023-08-31T00:59:17;95040.09;;;22.26;57.96
32197;BME280;18697;42.770;23.400;2023-08-31T01:02:11;95040.09;;;22.26;58.24
32197;BME280;18697;42.770;23.400;2023-08-31T01:08:03;95043.03;;;22.49;57.75
32197;BME280;18697;42.770;23.400;2023-08-31T01:10:53;95047.81;;;22.61;57.19
32197;BME280;18697;42.770;23.400;2023-08-31T01:13:24;95055.97;;;22.73;56.91
32197;BME280;18697;42.770;23.400;2023-08-31T01:15:56;95050.59;;;22.82;56.56
32197;BME280;18697;42.770;23.400;2023-08-31T01:18:25;95057.75;;;22.83;56.54
32197;BME280;18697;42.770;23.400;2023-08-31T01:21:00;95046.03;;;22.79;56.16
32197;BME280;18697;42.770;23.400;2023-08-31T01:23:38;95050.13;;;22.71;56.86
32197;BME280;18697;42.770;23.400;2023-08-31T01:26:05;95054.38;;;22.85;56.39
32197;BME280;18697;42.770;23.400;2023-08-31T01:28:30;95055.50;;;22.82;55.82
32197;BME280;18697;42.770;23.400;2023-08-31T01:30:56;95053.34;;;22.75;56.65
32197;BME280;18697;42.770;23.400;2023-08-31T01:33:25;95049.44;;;22.49;57.27
32197;BME280;18697;42.770;23.400;2023-08-31T01:35:53;95049.44;;;22.49;57.19
32197;BME280;18697;42.770;23.400;2023-08-31T01:38:25;95040.97;;;22.49;57.01
32197;BME280;18697;42.770;23.400;2023-08-31T01:41:17;95051.56;;;22.56;56.86
32197;BME280;18697;42.770;23.400;2023-08-31T01:43:42;95060.31;;;22.74;56.39
32197;BME280;18697;42.770;23.400;2023-08-31T01:46:08;95054.47;;;22.72;56.30
32197;BME280;18697;42.770;23.400;2023-08-31T01:48:39;95059.00;;;22.75;56.24
32197;BME280;18697;42.770;23.400;2023-08-31T01:51:07;95055.28;;;22.80;55.86
32197;BME280;18697;42.770;23.400;2023-08-31T01:53:32;95055.97;;;22.73;56.17
32197;BME280;18697;42.770;23.400;2023-08-31T01:55:58;95053.72;;;22.71;56.01
32197;BME280;18697;42.770;23.400;2023-08-31T01:58:23;95053.88;;;22.66;56.21
32197;BME280;18697;42.770;23.400;2023-08-31T02:00:49;95053.31;;;22.67;56.07
32197;BME280;18697;42.770;23.400;2023-08-31T02:03:14;95066.94;;;22.76;55.79
32197;BME280;18697;42.770;23.400;2023-08-31T02:05:39;95071.66;;;22.74;55.87
32197;BME280;18697;42.770;23.400;2023-08-31T02:08:05;95063.59;;;22.49;56.56
32197;BME280;18697;42.770;23.400;2023-08-31T02:10:30;95073.84;;;22.60;56.07
32197;BME280;18697;42.770;23.400;2023-08-31T02:12:56;95072.03;;;22.42;56.47
32197;BME280;18697;42.770;23.400;2023-08-31T02:15:21;95073.69;;;22.37;56.58
32197;BME280;18697;42.770;23.400;2023-08-31T02:17:46;95072.13;;;22.28;56.97
32197;BME280;18697;42.770;23.400;2023-08-31T02:20:12;95064.78;;;22.25;56.98
32197;BME280;18697;42.770;23.400;2023-08-31T02:22:39;95061.00;;;22.23;56.80
32197;BME280;18697;42.770;23.400;2023-08-31T02:25:05;95055.16;;;22.28;56.86
32197;BME280;18697;42.770;23.400;2023-08-31T02:27:30;95069.38;;;22.08;57.69
32197;BME280;18697;42.770;23.400;2023-08-31T02:29:56;95067.22;;;22.21;57.32
32197;BME280;18697;42.770;23.400;2023-08-31T02:32:21;95059.13;;;22.25;56.82
32197;BME280;18697;42.770;23.400;2023-08-31T02:34:47;95070.44;;;22.25;56.92
32197;BME280;18697;42.770;23.400;2023-08-31T02:37:12;95070.38;;;22.18;56.90
32197;BME280;18697;42.770;23.400;2023-08-31T02:39:38;95069.44;;;22.15;56.32
32197;BME280;18697;42.770;23.400;2023-08-31T02:42:14;95077.56;;;21.98;57.20
32197;BME280;18697;42.770;23.400;2023-08-31T02:44:42;95077.50;;;21.90;57.19
32197;BME280;18697;42.770;23.400;2023-08-31T02:47:07;95079.84;;;21.79;57.52
32197;BME280;18697;42.770;23.400;2023-08-31T02:49:33;95069.09;;;21.77;57.15
32197;BME280;18697;42.770;23.400;2023-08-31T02:51:59;95075.16;;;21.81;57.04
32197;BME280;18697;42.770;23.400;2023-08-31T02:54:24;95071.03;;;21.82;57.12
32197;BME280;18697;42.770;23.400;2023-08-31T02:56:49;95077.38;;;21.75;57.45
32197;BME280;18697;42.770;23.400;2023-08-31T02:59:15;95085.78;;;21.68;57.52
32197;BME280;18697;42.770;23.400;2023-08-31T03:01:42;95079.16;;;21.65;57.61
32197;BME280;18697;42.770;23.400;2023-08-31T03:04:11;95088.03;;;21.69;57.75
32197;BME280;18697;42.770;23.400;2023-08-31T03:06:36;95099.75;;;21.73;57.34
32197;BME280;18697;42.770;23.400;2023-08-31T03:09:02;95094.13;;;21.73;57.27
32197;BME280;18697;42.770;23.400;2023-08-31T03:11:27;95095.34;;;21.64;57.16
32197;BME280;18697;42.770;23.400;2023-08-31T03:13:53;95104.31;;;21.76;56.94
32197;BME280;18697;42.770;23.400;2023-08-31T03:16:18;95108.72;;;21.85;57.01
32197;BME280;18697;42.770;23.400;2023-08-31T03:18:43;95104.94;;;21.82;56.88
32197;BME280;18697;42.770;23.400;2023-08-31T03:21:09;95109.28;;;21.83;56.77
32197;BME280;18697;42.770;23.400;2023-08-31T03:23:34;95111.56;;;21.85;56.81
32197;BME280;18697;42.770;23.400;2023-08-31T03:26:00;95100.44;;;21.87;56.29
32197;BME280;18697;42.770;23.400;2023-08-31T03:28:31;95120.44;;;21.89;56.41
32197;BME280;18697;42.770;23.400;2023-08-31T03:30:57;95111.06;;;21.94;56.49
32197;BME280;18697;42.770;23.400;2023-08-31T03:33:22;95107.97;;;21.84;56.41
32197;BME280;18697;42.770;23.400;2023-08-31T03:35:48;95101.75;;;21.86;56.50
32197;BME280;18697;42.770;23.400;2023-08-31T03:38:13;95098.31;;;21.80;56.30
32197;BME280;18697;42.770;23.400;2023-08-31T03:40:38;95104.03;;;21.46;56.97
32197;BME280;18697;42.770;23.400;2023-08-31T03:43:04;95110.16;;;21.37;57.41
32197;BME280;18697;42.770;23.400;2023-08-31T03:45:29;95106.06;;;21.24;57.68
32197;BME280;18697;42.770;23.400;2023-08-31T03:47:55;95116.38;;;21.22;57.94
32197;BME280;18697;42.770;23.400;2023-08-31T03:50:20;95116.78;;;21.39;57.32
32197;BME280;18697;42.770;23.400;2023-08-31T03:52:45;95120.91;;;21.38;57.50
32197;BME280;18697;42.770;23.400;2023-08-31T03:55:11;95111.63;;;21.51;57.02
32197;BME280;18697;42.770;23.400;2023-08-31T03:57:36;95123.13;;;21.53;57.05
32197;BME280;18697;42.770;23.400;2023-08-31T04:00:02;95131.78;;;20.60;59.49
32197;BME280;18697;42.770;23.400;2023-08-31T04:02:42;95137.53;;;20.68;59.68
32197;BME280;18697;42.770;23.400;2023-08-31T04:05:09;95139.75;;;20.96;58.94
32197;BME280;18697;42.770;23.400;2023-08-31T04:07:35;95149.38;;;21.14;58.28
32197;BME280;18697;42.770;23.400;2023-08-31T04:10:00;95161.34;;;20.93;58.91
32197;BME280;18697;42.770;23.400;2023-08-31T04:12:26;95165.41;;;20.72;59.16
32197;BME280;18697;42.770;23.400;2023-08-31T04:14:51;95172.13;;;20.69;59.20
32197;BME280;18697;42.770;23.400;2023-08-31T04:17:16;95168.66;;;20.76;59.37
32197;BME280;18697;42.770;23.400;2023-08-31T04:19:42;95180.38;;;20.53;59.90
32197;BME280;18697;42.770;23.400;2023-08-31T04:22:07;95177.69;;;20.29;60.76
32197;BME280;18697;42.770;23.400;2023-08-31T04:24:32;95186.56;;;20.52;60.20
32197;BME280;18697;42.770;23.400;2023-08-31T04:26:58;95187.44;;;20.60;60.26
32197;BME280;18697;42.770;23.400;2023-08-31T04:29:24;95191.47;;;20.78;60.23
32197;BME280;18697;42.770;23.400;2023-08-31T04:31:50;95193.81;;;21.00;59.24
32197;BME280;18697;42.770;23.400;2023-08-31T04:34:15;95185.56;;;21.15;59.24
32197;BME280;18697;42.770;23.400;2023-08-31T04:36:41;95202.16;;;21.19;59.42
32197;BME280;18697;42.770;23.400;2023-08-31T04:39:06;95198.38;;;21.29;59.42
32197;BME280;18697;42.770;23.400;2023-08-31T04:41:33;95201.97;;;21.30;59.67
32197;BME280;18697;42.770;23.400;2023-08-31T04:43:58;95199.03;;;21.36;59.36
32197;BME280;18697;42.770;23.400;2023-08-31T04:46:23;95204.84;;;21.51;58.98
32197;BME280;18697;42.770;23.400;2023-08-31T04:48:49;95200.03;;;21.59;58.55
32197;BME280;18697;42.770;23.400;2023-08-31T04:53:55;95205.75;;;21.67;58.53
32197;BME280;18697;42.770;23.400;2023-08-31T04:56:21;95212.19;;;21.67;58.56
32197;BME280;18697;42.770;23.400;2023-08-31T04:58:46;95209.34;;;21.67;59.25
32197;BME280;18697;42.770;23.400;2023-08-31T05:01:12;95205.00;;;21.66;59.20
32197;BME280;18697;42.770;23.400;2023-08-31T05:03:37;95195.84;;;21.73;59.29
32197;BME280;18697;42.770;23.400;2023-08-31T05:06:03;95189.22;;;21.71;59.69
32197;BME280;18697;42.770;23.400;2023-08-31T05:08:30;95196.81;;;21.76;59.77
32197;BME280;18697;42.770;23.400;2023-08-31T05:10:55;95206.34;;;21.86;59.13
32197;BME280;18697;42.770;23.400;2023-08-31T05:13:21;95201.78;;;21.83;59.67
32197;BME280;18697;42.770;23.400;2023-08-31T05:15:46;95208.59;;;21.67;60.43
32197;BME280;18697;42.770;23.400;2023-08-31T05:18:11;95212.91;;;21.47;61.14
32197;BME280;18697;42.770;23.400;2023-08-31T05:20:37;95205.97;;;20.95;63.86
32197;BME280;18697;42.770;23.400;2023-08-31T05:23:02;95216.84;;;20.78;65.44
32197;BME280;18697;42.770;23.400;2023-08-31T05:25:28;95211.41;;;20.53;67.02
32197;BME280;18697;42.770;23.400;2023-08-31T05:27:53;95216.50;;;20.55;67.43
32197;BME280;18697;42.770;23.400;2023-08-31T05:30:19;95212.72;;;20.20;69.48
32197;BME280;18697;42.770;23.400;2023-08-31T05:32:44;95215.31;;;20.18;70.22
32197;BME280;18697;42.770;23.400;2023-08-31T05:35:09;95216.16;;;20.13;70.88
32197;BME280;18697;42.770;23.400;2023-08-31T05:37:35;95209.31;;;20.41;69.76
32197;BME280;18697;42.770;23.400;2023-08-31T05:40:04;95212.50;;;20.63;68.83
32197;BME280;18697;42.770;23.400;2023-08-31T05:42:35;95217.41;;;20.76;68.36
32197;BME280;18697;42.770;23.400;2023-08-31T05:45:01;95213.03;;;21.02;67.41
32197;BME280;18697;42.770;23.400;2023-08-31T05:47:26;95217.28;;;20.95;67.36
32197;BME280;18697;42.770;23.400;2023-08-31T05:49:52;95211.63;;;21.08;66.19
32197;BME280;18697;42.770;23.400;2023-08-31T05:52:17;95207.41;;;21.28;65.23
32197;BME280;18697;42.770;23.400;2023-08-31T05:54:45;95209.69;;;21.63;63.68
32197;BME280;18697;42.770;23.400;2023-08-31T05:57:11;95205.75;;;22.01;62.15
32197;BME280;18697;42.770;23.400;2023-08-31T05:59:36;95198.41;;;22.18;62.07
32197;BME280;18697;42.770;23.400;2023-08-31T06:02:02;95210.81;;;22.36;60.43
32197;BME280;18697;42.770;23.400;2023-08-31T06:04:29;95206.28;;;22.61;60.12
32197;BME280;18697;42.770;23.400;2023-08-31T06:06:56;95207.72;;;22.76;59.55
32197;BME280;18697;42.770;23.400;2023-08-31T06:09:21;95210.56;;;22.76;58.75
32197;BME280;18697;42.770;23.400;2023-08-31T06:11:46;95210.56;;;22.76;59.15
32197;BME280;18697;42.770;23.400;2023-08-31T06:14:12;95217.72;;;22.77;59.30
32197;BME280;18697;42.770;23.400;2023-08-31T06:16:37;95220.47;;;22.41;60.28
32197;BME280;18697;42.770;23.400;2023-08-31T06:19:02;95234.41;;;22.18;59.79
32197;BME280;18697;42.770;23.400;2023-08-31T06:21:28;95224.06;;;21.86;61.46
32197;BME280;18697;42.770;23.400;2023-08-31T06:23:54;95234.69;;;21.59;62.45
32197;BME280;18697;42.770;23.400;2023-08-31T06:26:19;95237.75;;;21.95;61.90
32197;BME280;18697;42.770;23.400;2023-08-31T06:28:47;95232.13;;;22.58;59.96
32197;BME280;18697;42.770;23.400;2023-08-31T06:31:13;95238.84;;;22.26;60.47
32197;BME280;18697;42.770;23.400;2023-08-31T06:33:38;95237.22;;;22.39;59.99
32197;BME280;18697;42.770;23.400;2023-08-31T06:36:04;95242.78;;;22.23;60.11
32197;BME280;18697;42.770;23.400;2023-08-31T06:38:29;95235.34;;;22.83;59.19
32197;BME280;18697;42.770;23.400;2023-08-31T06:40:54;95246.84;;;23.42;57.67
32197;BME280;18697;42.770;23.400;2023-08-31T06:43:24;95254.97;;;23.81;56.47
32197;BME280;18697;42.770;23.400;2023-08-31T06:45:49;95262.63;;;24.09;55.12
32197;BME280;18697;42.770;23.400;2023-08-31T06:48:15;95259.88;;;24.40;55.23
32197;BME280;18697;42.770;23.400;2023-08-31T06:50:40;95257.03;;;24.63;54.38
32197;BME280;18697;42.770;23.400;2023-08-31T06:53:08;95265.00;;;24.87;53.80
32197;BME280;18697;42.770;23.400;2023-08-31T06:55:34;95258.00;;;25.03;52.64
32197;BME280;18697;42.770;23.400;2023-08-31T06:58:01;95263.47;;;25.24;51.87
32197;BME280;18697;42.770;23.400;2023-08-31T07:00:28;95257.34;;;25.43;52.58
32197;BME280;18697;42.770;23.400;2023-08-31T07:02:53;95256.75;;;25.52;51.55
32197;BME280;18697;42.770;23.400;2023-08-31T07:05:18;95262.97;;;25.73;51.11
32197;BME280;18697;42.770;23.400;2023-08-31T07:07:51;95265.56;;;25.08;50.75
32197;BME280;18697;42.770;23.400;2023-08-31T07:10:17;95262.53;;;25.14;51.08
32197;BME280;18697;42.770;23.400;2023-08-31T07:12:42;95269.63;;;25.53;50.71
32197;BME280;18697;42.770;23.400;2023-08-31T07:15:08;95266.75;;;25.76;51.38
32197;BME280;18697;42.770;23.400;2023-08-31T07:17:33;95263.47;;;25.87;50.30
32197;BME280;18697;42.770;23.400;2023-08-31T07:20:02;95274.16;;;26.11;50.01
32197;BME280;18697;42.770;23.400;2023-08-31T07:22:32;95266.09;;;26.33;49.45
32197;BME280;18697;42.770;23.400;2023-08-31T07:24:57;95267.91;;;26.45;48.58
32197;BME280;18697;42.770;23.400;2023-08-31T07:27:23;95267.16;;;26.45;48.54
32197;BME280;18697;42.770;23.400;2023-08-31T07:29:48;95261.16;;;26.33;49.21
32197;BME280;18697;42.770;23.400;2023-08-31T07:32:13;95263.06;;;26.63;48.07
32197;BME280;18697;42.770;23.400;2023-08-31T07:34:39;95261.69;;;26.39;46.78
32197;BME280;18697;42.770;23.400;2023-08-31T07:37:04;95266.16;;;26.75;48.40
32197;BME280;18697;42.770;23.400;2023-08-31T07:39:31;95269.25;;;26.94;46.85
32197;BME280;18697;42.770;23.400;2023-08-31T07:41:57;95266.28;;;27.09;45.68
32197;BME280;18697;42.770;23.400;2023-08-31T07:44:24;95266.56;;;27.21;45.93
32197;BME280;18697;42.770;23.400;2023-08-31T07:46:50;95258.88;;;27.31;46.15
32197;BME280;18697;42.770;23.400;2023-08-31T07:49:15;95272.06;;;27.44;44.80
32197;BME280;18697;42.770;23.400;2023-08-31T07:51:41;95267.41;;;27.48;44.21
32197;BME280;18697;42.770;23.400;2023-08-31T07:54:06;95266.00;;;27.57;43.55
32197;BME280;18697;42.770;23.400;2023-08-31T07:56:32;95271.53;;;27.55;43.33
32197;BME280;18697;42.770;23.400;2023-08-31T07:58:57;95266.75;;;27.58;42.77
32197;BME280;18697;42.770;23.400;2023-08-31T08:01:23;95264.94;;;27.70;43.62
32197;BME280;18697;42.770;23.400;2023-08-31T08:03:49;95270.03;;;27.89;42.25
32197;BME280;18697;42.770;23.400;2023-08-31T08:06:14;95270.69;;;27.97;41.81
32197;BME280;18697;42.770;23.400;2023-08-31T08:08:40;95268.50;;;28.05;42.93
32197;BME280;18697;42.770;23.400;2023-08-31T08:11:08;95264.13;;;28.04;41.99
32197;BME280;18697;42.770;23.400;2023-08-31T08:13:33;95267.75;;;28.22;41.66
32197;BME280;18697;42.770;23.400;2023-08-31T08:15:58;95264.50;;;28.35;41.92
32197;BME280;18697;42.770;23.400;2023-08-31T08:18:24;95265.78;;;28.24;41.71
32197;BME280;18697;42.770;23.400;2023-08-31T08:20:53;95273.13;;;28.44;41.83
32197;BME280;18697;42.770;23.400;2023-08-31T08:23:18;95262.69;;;28.66;40.78
32197;BME280;18697;42.770;23.400;2023-08-31T08:25:43;95264.16;;;28.85;39.76
32197;BME280;18697;42.770;23.400;2023-08-31T08:28:09;95263.41;;;28.84;40.37
32197;BME280;18697;42.770;23.400;2023-08-31T08:30:34;95264.78;;;28.93;40.56
32197;BME280;18697;42.770;23.400;2023-08-31T08:33:03;95258.78;;;28.98;39.39
32197;BME280;18697;42.770;23.400;2023-08-31T08:35:28;95260.63;;;29.13;39.43
32197;BME280;18697;42.770;23.400;2023-08-31T08:37:53;95265.75;;;29.15;39.22
32197;BME280;18697;42.770;23.400;2023-08-31T08:40:19;95272.31;;;28.98;39.03
32197;BME280;18697;42.770;23.400;2023-08-31T08:42:46;95267.09;;;29.14;38.69
32197;BME280;18697;42.770;23.400;2023-08-31T08:45:15;95269.22;;;29.23;39.20
32197;BME280;18697;42.770;23.400;2023-08-31T08:47:42;95263.06;;;29.26;39.24
32197;BME280;18697;42.770;23.400;2023-08-31T08:50:10;95259.81;;;28.57;38.74
32197;BME280;18697;42.770;23.400;2023-08-31T08:52:36;95254.78;;;28.21;39.30
32197;BME280;18697;42.770;23.400;2023-08-31T08:55:03;95255.91;;;28.08;41.20
32197;BME280;18697;42.770;23.400;2023-08-31T08:57:30;95246.75;;;28.36;40.72
32197;BME280;18697;42.770;23.400;2023-08-31T08:59:57;95255.44;;;27.67;39.90
32197;BME280;18697;42.770;23.400;2023-08-31T09:02:23;95254.81;;;28.03;41.30
32197;BME280;18697;42.770;23.400;2023-08-31T09:04:48;95256.72;;;28.45;39.20
32197;BME280;18697;42.770;23.400;2023-08-31T09:07:14;95248.75;;;28.70;40.46
32197;BME280;18697;42.770;23.400;2023-08-31T09:09:53;95251.09;;;28.91;38.17
32197;BME280;18697;42.770;23.400;2023-08-31T09:12:24;95265.50;;;28.84;38.13
32197;BME280;18697;42.770;23.400;2023-08-31T09:15:03;95260.28;;;28.63;36.58
32197;BME280;18697;42.770;23.400;2023-08-31T09:17:42;95250.00;;;28.50;38.05
32197;BME280;18697;42.770;23.400;2023-08-31T09:20:09;95256.31;;;28.49;36.73
32197;BME280;18697;42.770;23.400;2023-08-31T09:22:35;95266.00;;;28.63;36.64
32197;BME280;18697;42.770;23.400;2023-08-31T09:25:01;95260.41;;;28.82;36.45
32197;BME280;18697;42.770;23.400;2023-08-31T09:27:28;95263.13;;;28.99;36.33
32197;BME280;18697;42.770;23.400;2023-08-31T09:29:54;95262.91;;;29.24;36.42
32197;BME280;18697;42.770;23.400;2023-08-31T09:32:20;95265.84;;;29.43;36.78
32197;BME280;18697;42.770;23.400;2023-08-31T09:34:47;95257.88;;;29.71;36.33
32197;BME280;18697;42.770;23.400;2023-08-31T09:37:15;95268.41;;;29.88;33.77
32197;BME280;18697;42.770;23.400;2023-08-31T09:39:41;95263.56;;;29.81;34.41
32197;BME280;18697;42.770;23.400;2023-08-31T09:42:06;95258.00;;;29.92;34.89
32197;BME280;18697;42.770;23.400;2023-08-31T09:44:32;95249.88;;;30.18;34.50
32197;BME280;18697;42.770;23.400;2023-08-31T09:46:57;95254.22;;;30.28;32.98
32197;BME280;18697;42.770;23.400;2023-08-31T09:49:24;95261.78;;;30.04;33.61
32197;BME280;18697;42.770;23.400;2023-08-31T09:51:51;95251.03;;;30.34;35.52
32197;BME280;18697;42.770;23.400;2023-08-31T09:54:18;95259.03;;;30.35;32.46
32197;BME280;18697;42.770;23.400;2023-08-31T09:56:46;95255.91;;;30.22;34.18
32197;BME280;18697;42.770;23.400;2023-08-31T09:59:14;95265.47;;;30.46;32.97
32197;BME280;18697;42.770;23.400;2023-08-31T10:01:40;95261.53;;;30.60;33.39
32197;BME280;18697;42.770;23.400;2023-08-31T10:04:07;95262.41;;;30.72;32.65
32197;BME280;18697;42.770;23.400;2023-08-31T10:06:38;95261.56;;;30.91;32.56
32197;BME280;18697;42.770;23.400;2023-08-31T10:09:04;95259.69;;;31.05;32.33
32197;BME280;18697;42.770;23.400;2023-08-31T10:11:31;95270.22;;;30.82;30.97
32197;BME280;18697;42.770;23.400;2023-08-31T10:13:58;95262.91;;;30.59;31.85
32197;BME280;18697;42.770;23.400;2023-08-31T10:16:25;95270.09;;;30.70;32.35
32197;BME280;18697;42.770;23.400;2023-08-31T10:18:55;95259.78;;;30.86;31.64
32197;BME280;18697;42.770;23.400;2023-08-31T10:21:21;95257.47;;;30.94;32.30
32197;BME280;18697;42.770;23.400;2023-08-31T10:23:51;95256.69;;;31.03;31.64
32197;BME280;18697;42.770;23.400;2023-08-31T10:26:30;95280.25;;;31.02;29.65
32197;BME280;18697;42.770;23.400;2023-08-31T10:28:57;95260.44;;;31.06;31.22
32197;BME280;18697;42.770;23.400;2023-08-31T10:31:34;95264.09;;;30.97;31.53
32197;BME280;18697;42.770;23.400;2023-08-31T10:34:02;95262.31;;;31.23;31.15
32197;BME280;18697;42.770;23.400;2023-08-31T10:36:37;95274.06;;;31.27;30.19
32197;BME280;18697;42.770;23.400;2023-08-31T10:39:14;95267.91;;;31.21;29.52
32197;BME280;18697;42.770;23.400;2023-08-31T10:41:54;95280.09;;;31.00;30.93
32197;BME280;18697;42.770;23.400;2023-08-31T10:44:25;95276.22;;;30.86;30.32
32197;BME280;18697;42.770;23.400;2023-08-31T10:46:53;95276.88;;;30.75;31.08
32197;BME280;18697;42.770;23.400;2023-08-31T10:49:21;95279.53;;;30.92;30.46
32197;BME280;18697;42.770;23.400;2023-08-31T10:51:49;95275.38;;;31.14;30.85
32197;BME280;18697;42.770;23.400;2023-08-31T10:54:22;95266.22;;;31.27;30.81
32197;BME280;18697;42.770;23.400;2023-08-31T10:59:24;95279.00;;;31.36;29.70
32197;BME280;18697;42.770;23.400;2023-08-31T11:02:02;95290.31;;;31.13;30.21
32197;BME280;18697;42.770;23.400;2023-08-31T11:04:30;95282.78;;;31.08;30.41
32197;BME280;18697;42.770;23.400;2023-08-31T11:07:17;95274.19;;;31.08;30.72
32197;BME280;18697;42.770;23.400;2023-08-31T11:09:45;95274.00;;;31.15;31.31
32197;BME280;18697;42.770;23.400;2023-08-31T11:12:11;95272.38;;;31.33;31.46
32197;BME280;18697;42.770;23.400;2023-08-31T11:14:37;95272.03;;;31.18;30.89
32197;BME280;18697;42.770;23.400;2023-08-31T11:17:04;95269.03;;;31.37;30.96
32197;BME280;18697;42.770;23.400;2023-08-31T11:19:33;95275.97;;;31.65;31.49
32197;BME280;18697;42.770;23.400;2023-08-31T11:22:03;95272.13;;;31.51;30.32
32197;BME280;18697;42.770;23.400;2023-08-31T11:24:34;95279.16;;;31.38;31.02
32197;BME280;18697;42.770;23.400;2023-08-31T11:27:00;95272.38;;;31.33;31.96
32197;BME280;18697;42.770;23.400;2023-08-31T11:29:29;95279.91;;;31.17;30.85
32197;BME280;18697;42.770;23.400;2023-08-31T11:31:56;95271.44;;;31.19;30.97
32197;BME280;18697;42.770;23.400;2023-08-31T11:34:24;95268.06;;;31.23;31.14
32197;BME280;18697;42.770;23.400;2023-08-31T11:36:49;95262.19;;;31.21;31.52
32197;BME280;18697;42.770;23.400;2023-08-31T11:39:17;95261.94;;;31.07;31.03
32197;BME280;18697;42.770;23.400;2023-08-31T11:41:42;95256.34;;;31.09;31.38
32197;BME280;18697;42.770;23.400;2023-08-31T11:44:09;95265.00;;;30.99;30.56
32197;BME280;18697;42.770;23.400;2023-08-31T11:46:39;95264.50;;;30.72;31.62
32197;BME280;18697;42.770;23.400;2023-08-31T11:49:06;95260.44;;;30.75;31.20
32197;BME280;18697;42.770;23.400;2023-08-31T11:51:34;95257.16;;;30.50;32.07
32197;BME280;18697;42.770;23.400;2023-08-31T11:54:01;95253.97;;;30.65;32.74
32197;BME280;18697;42.770;23.400;2023-08-31T11:56:43;95257.63;;;30.46;32.97
32197;BME280;18697;42.770;23.400;2023-08-31T11:59:12;95248.28;;;30.46;33.14
32197;BME280;18697;42.770;23.400;2023-08-31T12:01:42;95247.88;;;30.30;33.78
32197;BME280;18697;42.770;23.400;2023-08-31T12:04:12;95243.06;;;30.32;33.87
32197;BME280;18697;42.770;23.400;2023-08-31T12:06:38;95237.94;;;30.31;33.84
32197;BME280;18697;42.770;23.400;2023-08-31T12:09:06;95236.56;;;30.42;33.33
32197;BME280;18697;42.770;23.400;2023-08-31T12:11:31;95240.41;;;30.65;33.67
32197;BME280;18697;42.770;23.400;2023-08-31T12:14:03;95234.25;;;30.90;32.97
32197;BME280;18697;42.770;23.400;2023-08-31T12:16:35;95239.34;;;31.01;31.48
32197;BME280;18697;42.770;23.400;2023-08-31T12:19:04;95242.03;;;31.09;32.37
32197;BME280;18697;42.770;23.400;2023-08-31T12:21:33;95251.00;;;30.94;31.82
32197;BME280;18697;42.770;23.400;2023-08-31T12:23:59;95255.56;;;30.87;31.75
32197;BME280;18697;42.770;23.400;2023-08-31T12:26:25;95244.59;;;30.74;31.55
32197;BME280;18697;42.770;23.400;2023-08-31T12:28:51;95242.22;;;31.01;32.01
32197;BME280;18697;42.770;23.400;2023-08-31T12:31:16;95232.13;;;31.22;31.91
32197;BME280;18697;42.770;23.400;2023-08-31T12:33:41;95226.53;;;31.45;32.57
32197;BME280;18697;42.770;23.400;2023-08-31T12:36:07;95231.59;;;31.56;32.56
32197;BME280;18697;42.770;23.400;2023-08-31T12:38:32;95226.13;;;31.60;31.18
32197;BME280;18697;42.770;23.400;2023-08-31T12:40:58;95229.91;;;31.63;31.80
32197;BME280;18697;42.770;23.400;2023-08-31T12:43:24;95221.63;;;31.36;31.68
32197;BME280;18697;42.770;23.400;2023-08-31T12:45:49;95221.84;;;31.50;31.59
32197;BME280;18697;42.770;23.400;2023-08-31T12:48:14;95228.59;;;31.54;31.60
32197;BME280;18697;42.770;23.400;2023-08-31T12:50:40;95226.97;;;31.73;31.41
32197;BME280;18697;42.770;23.400;2023-08-31T12:53:05;95234.75;;;31.82;30.76
32197;BME280;18697;42.770;23.400;2023-08-31T12:55:31;95233.13;;;31.79;31.33
32197;BME280;18697;42.770;23.400;2023-08-31T12:57:56;95227.91;;;31.87;30.73